Главная страница
METAR-TAF:

METAR-TAF

Аэропорты :

Майдугури, Нигерия

широта: 11-51N, долгота: 013-05E, высота над уровнем моря: 354 м

METAR: отсутствует

Время: 03:49 (02:49 UTC)

Прогноз

Эта сводка был подготовлена 3 часа и 49 минут назад, в 23:00 UTC
Прогноз действительный с 20-го 00 UTC до 21-го 06 UTC
Ветер 4 Узел переменных направлений
Видимость 10 км и более
Нет облачности ниже 1500 м, и нет кучево-дождевой облачности

TAF: DNMA 192300Z 2000/2106 VRB04KT CAVOK

Метеонаблюдения и прогнозы для более 4000 аэропортов (сводки METAR и TAF).

Имеющиеся станции представлены на карте желтыми и красными точками.

Чтобы увидеть название станции, наведите на нее мышь.

Затем щелкните, чтобы увидеть метеонаблюдения и метеопрогнозы.

Управление картой: чтобы увеличить масштаб, щелкните зеленые кнопки с черным крестиком; чтобы уменьшить масштаб, щелкните зеленую кнопку с тире; для просмотра соседних карт щелкайте зеленые стрелки.


METAR-TAF: